Time;durP1;ratioP1;P1;durP2;ratioP2;P2;SDS_P1;SDS_P2;PMS_P1;PMS_P2;Temp;Humidity;BMP_temperature;BMP_pressure;BME280_temperature;BME280_humidity;BME280_pressure;Samples;Min_cycle;Max_cycle;Signal;HPM_P1;HPM_P2
2023/09/20 00:02:12;;;;;;;5.90;2.40;;;16.50;99.90;;;;;;5007704;28;20044;-80
2023/09/20 00:04:37;;;;;;;9.13;2.33;;;16.60;99.90;;;;;;5025994;28;20128;-82
2023/09/20 00:07:07;;;;;;;5.20;2.30;;;16.50;99.90;;;;;;5008427;28;20175;-83
2023/09/20 00:09:33;;;;;;;8.15;2.25;;;16.50;99.90;;;;;;4991115;28;20037;-85
2023/09/20 00:11:58;;;;;;;9.90;2.67;;;16.50;99.90;;;;;;5025647;28;20462;-81
2023/09/20 00:14:24;;;;;;;6.60;3.28;;;16.50;99.90;;;;;;5006666;28;20440;-85
2023/09/20 00:16:52;;;;;;;6.90;2.25;;;16.50;99.90;;;;;;5025413;28;20280;-82
2023/09/20 00:19:18;;;;;;;7.30;2.95;;;16.50;99.90;;;;;;5007790;28;20053;-81
2023/09/20 00:21:44;;;;;;;11.32;2.47;;;16.60;99.90;;;;;;4991326;28;20164;-85
2023/09/20 00:24:10;;;;;;;12.73;2.72;;;16.60;99.90;;;;;;5025047;28;20127;-82
2023/09/20 00:26:36;;;;;;;9.35;2.13;;;16.60;99.90;;;;;;5025244;28;20045;-85
2023/09/20 00:29:05;;;;;;;7.05;2.70;;;16.60;99.90;;;;;;5025139;28;20051;-81
2023/09/20 00:31:34;;;;;;;7.45;2.10;;;16.60;99.90;;;;;;5005009;28;20041;-85
2023/09/20 00:34:03;;;;;;;6.53;1.65;;;16.60;99.90;;;;;;5006715;28;20134;-84
2023/09/20 00:36:29;;;;;;;4.05;1.88;;;16.60;99.90;;;;;;4990753;28;20049;-80
2023/09/20 00:38:57;;;;;;;4.68;1.58;;;16.60;99.90;;;;;;5024894;28;20088;-84
2023/09/20 00:41:23;;;;;;;6.18;2.28;;;16.60;99.90;;;;;;4990745;28;20054;-84
2023/09/20 00:43:52;;;;;;;10.95;3.38;;;16.60;99.90;;;;;;5025398;28;20133;-82
2023/09/20 00:46:19;;;;;;;5.53;2.78;;;16.60;99.90;;;;;;5005766;28;20045;-83
2023/09/20 00:48:45;;;;;;;9.57;2.65;;;16.60;99.90;;;;;;4990392;28;20050;-82
2023/09/20 00:51:12;;;;;;;7.47;2.33;;;16.50;99.90;;;;;;5024712;28;20041;-81
2023/09/20 00:53:38;;;;;;;11.80;3.58;;;16.60;99.90;;;;;;4991168;28;20053;-84
2023/09/20 00:56:05;;;;;;;5.25;1.77;;;16.60;99.90;;;;;;5006972;28;20042;-82
2023/09/20 00:58:34;;;;;;;6.45;2.22;;;16.50;99.90;;;;;;5024593;28;20049;-84
2023/09/20 01:01:00;;;;;;;9.07;2.30;;;16.60;99.90;;;;;;5005073;28;20077;-83
2023/09/20 01:03:27;;;;;;;8.20;2.50;;;16.60;99.90;;;;;;5006885;28;20124;-79
2023/09/20 01:05:54;;;;;;;7.53;2.97;;;16.60;99.90;;;;;;5006946;28;20051;-78
2023/09/20 01:08:20;;;;;;;11.68;4.07;;;16.60;99.90;;;;;;5005654;28;20060;-80
2023/09/20 01:10:48;;;;;;;8.55;3.15;;;16.60;99.90;;;;;;4989766;28;20045;-84
2023/09/20 01:13:15;;;;;;;10.35;2.67;;;16.60;99.90;;;;;;5006611;28;20115;-83
2023/09/20 01:15:41;;;;;;;9.55;2.78;;;16.60;99.90;;;;;;5005517;28;20080;-81
2023/09/20 01:18:07;;;;;;;11.07;4.50;;;16.60;99.90;;;;;;5025010;28;20037;-85
2023/09/20 01:20:37;;;;;;;11.00;3.55;;;16.60;99.90;;;;;;5006582;28;20057;-82
2023/09/20 01:23:03;;;;;;;3.35;2.22;;;16.60;99.90;;;;;;5006294;28;20053;-85
2023/09/20 01:25:40;;;;;;;8.77;2.30;;;16.60;99.90;;;;;;4989445;28;20319;-80
2023/09/20 01:28:08;;;;;;;8.32;1.90;;;16.60;99.90;;;;;;4990445;28;20479;-82
2023/09/20 01:30:36;;;;;;;13.45;2.72;;;16.60;99.90;;;;;;5004707;28;20048;-81
2023/09/20 01:33:09;;;;;;;5.55;2.08;;;16.60;99.90;;;;;;5006830;28;20504;-81
2023/09/20 01:35:37;;;;;;;8.07;3.20;;;16.60;99.90;;;;;;5006869;28;20045;-82
2023/09/20 01:38:07;;;;;;;5.72;2.83;;;16.60;99.90;;;;;;5006145;28;20045;-84
2023/09/20 01:40:34;;;;;;;5.32;2.53;;;16.60;99.90;;;;;;5005612;28;20132;-81
2023/09/20 01:43:09;;;;;;;4.45;2.40;;;16.60;99.90;;;;;;4990098;28;20119;-82
2023/09/20 01:45:36;;;;;;;9.68;2.78;;;16.60;99.90;;;;;;4988949;28;20537;-81
2023/09/20 01:48:06;;;;;;;11.93;2.88;;;16.60;99.90;;;;;;4990060;28;20045;-85
2023/09/20 01:50:32;;;;;;;11.07;2.05;;;16.60;99.90;;;;;;5005350;28;20124;-83
2023/09/20 01:53:00;;;;;;;6.65;2.47;;;16.60;99.90;;;;;;5006518;28;20523;-80
2023/09/20 01:55:28;;;;;;;12.48;2.22;;;16.60;99.90;;;;;;4989150;28;20116;-82
2023/09/20 01:57:55;;;;;;;7.05;1.83;;;16.60;99.90;;;;;;4988836;28;20099;-81
2023/09/20 02:00:36;;;;;;;11.68;2.60;;;16.60;99.90;;;;;;5005184;28;20396;-83
2023/09/20 02:03:09;;;;;;;4.80;2.20;;;16.60;99.90;;;;;;5006209;28;20049;-83
2023/09/20 02:05:38;;;;;;;7.35;2.30;;;16.60;99.90;;;;;;4989893;28;20038;-84
2023/09/20 02:08:04;;;;;;;9.77;2.63;;;16.60;99.90;;;;;;5023744;28;20447;-81
2023/09/20 02:10:31;;;;;;;10.23;3.30;;;16.60;99.90;;;;;;4988514;28;20037;-85
2023/09/20 02:12:58;;;;;;;21.58;3.67;;;16.60;99.90;;;;;;5005410;28;20711;-81
2023/09/20 02:15:25;;;;;;;7.97;2.55;;;16.60;99.90;;;;;;5004790;28;20049;-81
2023/09/20 02:17:51;;;;;;;10.35;2.42;;;16.60;99.90;;;;;;5005055;28;20057;-78
2023/09/20 02:20:20;;;;;;;5.63;2.28;;;16.60;99.90;;;;;;5005518;28;20042;-81
2023/09/20 02:22:47;;;;;;;13.68;3.08;;;16.60;99.90;;;;;;5001958;28;20041;-86
2023/09/20 02:25:14;;;;;;;4.80;2.00;;;16.60;99.90;;;;;;5004520;28;20120;-83
2023/09/20 02:27:44;;;;;;;5.65;1.73;;;16.60;99.90;;;;;;5005402;28;20495;-81
2023/09/20 02:30:19;;;;;;;6.75;2.08;;;16.60;99.90;;;;;;5022186;28;20042;-84
2023/09/20 02:32:49;;;;;;;20.95;2.08;;;16.60;99.90;;;;;;4989037;28;20087;-85
2023/09/20 02:35:16;;;;;;;3.55;1.98;;;16.60;99.90;;;;;;5005391;28;20060;-85
2023/09/20 02:37:43;;;;;;;5.72;1.70;;;16.60;99.90;;;;;;5005633;28;20054;-80
2023/09/20 02:40:13;;;;;;;3.65;2.40;;;16.60;99.90;;;;;;4988442;28;20060;-80
2023/09/20 02:42:44;;;;;;;5.25;1.98;;;16.60;99.90;;;;;;4989163;28;20091;-78
2023/09/20 02:45:14;;;;;;;10.30;4.05;;;16.60;99.90;;;;;;5004100;28;20045;-83
2023/09/20 02:47:43;;;;;;;5.65;2.20;;;16.60;99.90;;;;;;5005609;28;20152;-81
2023/09/20 02:50:12;;;;;;;5.82;2.17;;;16.60;99.90;;;;;;5005624;28;20132;-81
2023/09/20 02:52:40;;;;;;;6.32;2.50;;;16.60;99.90;;;;;;5004530;28;20048;-80
2023/09/20 02:55:07;;;;;;;8.32;2.13;;;16.60;99.90;;;;;;4988517;28;20065;-82
2023/09/20 02:57:37;;;;;;;13.40;2.30;;;16.70;99.90;;;;;;5007093;28;20053;-83
2023/09/20 03:00:14;;;;;;;12.48;1.85;;;16.70;99.90;;;;;;5008068;28;20045;-85
2023/09/20 03:02:47;;;;;;;3.42;1.65;;;16.70;99.90;;;;;;5010056;28;20439;-82
2023/09/20 03:05:15;;;;;;;3.97;2.20;;;16.70;99.90;;;;;;4993208;28;20045;-85
2023/09/20 03:07:42;;;;;;;2.90;1.65;;;16.70;99.90;;;;;;5008578;28;20052;-86
2023/09/20 03:10:12;;;;;;;8.95;1.90;;;16.70;99.90;;;;;;5027190;28;20040;-81
2023/09/20 03:12:39;;;;;;;4.80;1.90;;;16.60;99.90;;;;;;5007783;28;20050;-84
2023/09/20 03:15:07;;;;;;;9.63;1.83;;;16.70;99.90;;;;;;5008698;28;20136;-85
2023/09/20 03:17:36;;;;;;;6.80;2.10;;;16.70;99.90;;;;;;4992367;28;20079;-82
2023/09/20 03:20:07;;;;;;;9.48;2.55;;;16.70;99.90;;;;;;5009008;28;20049;-83
2023/09/20 03:22:36;;;;;;;6.30;2.38;;;16.70;99.90;;;;;;4991974;28;20087;-79
2023/09/20 03:25:04;;;;;;;9.35;1.92;;;16.70;99.90;;;;;;5008377;28;20130;-84
2023/09/20 03:27:30;;;;;;;5.75;2.53;;;16.70;99.90;;;;;;5026092;28;20045;-81
2023/09/20 03:29:57;;;;;;;7.00;2.10;;;16.70;99.90;;;;;;5007412;28;20045;-85
2023/09/20 03:32:23;;;;;;;6.07;1.58;;;16.70;99.90;;;;;;5008225;28;20124;-82
2023/09/20 03:34:49;;;;;;;6.18;2.50;;;16.70;99.90;;;;;;5009003;28;20141;-86
2023/09/20 03:37:17;;;;;;;7.68;2.17;;;16.70;99.90;;;;;;5008171;28;20661;-81
2023/09/20 03:39:43;;;;;;;4.93;2.38;;;16.70;99.90;;;;;;5008491;28;20053;-81
2023/09/20 03:42:11;;;;;;;7.65;2.28;;;16.70;99.90;;;;;;5008135;28;20046;-84
2023/09/20 03:44:38;;;;;;;7.10;2.30;;;16.70;99.90;;;;;;5007616;28;20050;-81
2023/09/20 03:47:05;;;;;;;6.30;2.38;;;16.70;99.90;;;;;;5008946;28;20084;-84
2023/09/20 03:49:31;;;;;;;6.15;2.50;;;16.70;99.90;;;;;;4991367;28;20049;-85
2023/09/20 03:51:59;;;;;;;7.22;2.78;;;16.70;99.90;;;;;;5008825;28;20067;-81
2023/09/20 03:54:26;;;;;;;9.23;2.75;;;16.70;99.90;;;;;;4991595;28;20041;-85
2023/09/20 03:56:52;;;;;;;3.92;2.17;;;16.70;99.90;;;;;;4991464;28;20045;-81
2023/09/20 03:59:18;;;;;;;5.32;2.40;;;16.70;99.90;;;;;;5006943;28;20041;-85
2023/09/20 04:01:44;;;;;;;8.73;3.15;;;16.70;99.90;;;;;;5008230;28;20064;-82
2023/09/20 04:04:09;;;;;;;5.72;2.63;;;16.70;99.90;;;;;;5025730;28;20446;-82
2023/09/20 04:06:35;;;;;;;7.38;2.45;;;16.70;99.90;;;;;;5008367;28;20443;-85
2023/09/20 04:09:11;;;;;;;6.70;2.85;;;16.70;99.90;;;;;;5007944;28;20124;-81
2023/09/20 04:11:38;;;;;;;5.35;2.38;;;16.70;99.90;;;;;;4991951;28;20136;-82
2023/09/20 04:14:08;;;;;;;10.82;2.72;;;16.70;99.90;;;;;;4991007;28;20095;-83
2023/09/20 04:16:35;;;;;;;12.00;3.10;;;16.70;99.90;;;;;;4991234;28;20546;-84
2023/09/20 04:19:01;;;;;;;5.00;2.67;;;16.60;99.90;;;;;;5024740;28;20029;-78
2023/09/20 04:21:27;;;;;;;5.32;2.75;;;16.60;99.90;;;;;;4990853;28;20088;-85
2023/09/20 04:23:53;;;;;;;5.88;2.70;;;16.60;99.90;;;;;;5007569;28;20443;-81
2023/09/20 04:26:18;;;;;;;6.13;2.17;;;16.60;99.90;;;;;;5007220;28;20049;-83
2023/09/20 04:28:44;;;;;;;7.05;2.58;;;16.60;99.90;;;;;;5006325;28;20045;-81
2023/09/20 04:31:10;;;;;;;6.40;3.03;;;16.60;99.90;;;;;;5007240;28;20488;-84
2023/09/20 04:33:36;;;;;;;5.10;2.50;;;16.60;99.90;;;;;;5007815;28;20094;-82
2023/09/20 04:36:04;;;;;;;7.60;3.20;;;16.60;99.90;;;;;;5007662;28;20108;-83
2023/09/20 04:38:30;;;;;;;4.05;2.35;;;16.60;99.90;;;;;;4990381;28;20053;-85
2023/09/20 04:40:56;;;;;;;9.07;2.00;;;16.60;99.90;;;;;;5007581;28;20037;-81
2023/09/20 04:43:22;;;;;;;7.47;3.22;;;16.50;99.90;;;;;;5002360;28;20045;-85
2023/09/20 04:45:51;;;;;;;9.23;4.03;;;16.50;99.90;;;;;;4995483;28;20120;-80
2023/09/20 04:48:17;;;;;;;6.97;2.28;;;16.60;99.90;;;;;;4996834;28;20075;-83
2023/09/20 04:50:42;;;;;;;3.50;1.60;;;16.60;99.90;;;;;;5004599;28;20447;-85
2023/09/20 04:53:08;;;;;;;4.25;1.90;;;16.50;99.90;;;;;;4989748;28;20136;-82
2023/09/20 04:55:34;;;;;;;7.00;3.15;;;16.50;99.90;;;;;;5005015;28;20514;-85
2023/09/20 04:58:00;;;;;;;7.55;3.20;;;16.50;99.90;;;;;;5006178;28;20072;-81
2023/09/20 05:00:33;;;;;;;6.78;2.25;;;16.50;99.90;;;;;;5023397;28;20128;-85
2023/09/20 05:03:00;;;;;;;4.82;2.60;;;16.50;99.90;;;;;;5006795;28;20476;-86
2023/09/20 05:05:26;;;;;;;7.43;3.80;;;16.50;99.90;;;;;;5007001;28;20133;-82
2023/09/20 05:07:52;;;;;;;9.45;2.33;;;16.50;99.90;;;;;;4998716;28;20128;-85
2023/09/20 05:10:18;;;;;;;5.43;3.60;;;16.50;99.90;;;;;;5006230;28;20454;-78
2023/09/20 05:12:44;;;;;;;6.72;2.83;;;16.50;99.90;;;;;;5005566;28;20058;-86
2023/09/20 05:15:13;;;;;;;3.92;2.20;;;16.50;99.90;;;;;;5005540;28;20052;-82
2023/09/20 05:17:39;;;;;;;6.18;2.55;;;16.40;99.90;;;;;;5003489;28;20050;-80
2023/09/20 05:20:06;;;;;;;4.38;2.95;;;16.40;99.90;;;;;;4995640;28;20064;-85
2023/09/20 05:22:33;;;;;;;4.82;2.50;;;16.50;99.90;;;;;;5005449;28;20049;-82
2023/09/20 05:24:59;;;;;;;3.92;2.20;;;16.40;99.90;;;;;;5006357;28;20041;-85
2023/09/20 05:27:24;;;;;;;3.08;2.17;;;16.50;99.90;;;;;;5004857;28;20042;-79
2023/09/20 05:29:53;;;;;;;6.15;2.42;;;16.50;99.90;;;;;;5005940;28;20037;-81
2023/09/20 05:32:19;;;;;;;8.63;2.53;;;16.40;99.90;;;;;;4989346;28;20033;-82
2023/09/20 05:34:46;;;;;;;4.10;2.38;;;16.50;99.90;;;;;;5003106;28;20064;-80
2023/09/20 05:37:12;;;;;;;3.55;1.92;;;16.50;99.90;;;;;;4988915;28;20135;-84
2023/09/20 05:39:38;;;;;;;5.65;2.60;;;16.50;99.90;;;;;;5000487;28;20042;-80
2023/09/20 05:42:05;;;;;;;4.65;2.00;;;16.40;99.90;;;;;;5007660;28;20042;-91
2023/09/20 05:44:31;;;;;;;4.75;1.95;;;16.40;99.90;;;;;;5005978;28;20038;-87
2023/09/20 05:46:58;;;;;;;11.75;2.10;;;16.40;99.90;;;;;;4995919;28;20045;-79
2023/09/20 05:49:24;;;;;;;7.53;2.83;;;16.50;99.90;;;;;;4990321;28;20053;-88
2023/09/20 05:51:52;;;;;;;4.55;2.42;;;16.50;99.90;;;;;;5005677;28;20049;-83
2023/09/20 05:54:21;;;;;;;5.97;2.53;;;16.50;99.90;;;;;;5003593;28;20038;-87
2023/09/20 05:56:47;;;;;;;8.40;2.58;;;16.50;99.90;;;;;;5004808;28;20029;-89
2023/09/20 05:59:12;;;;;;;6.82;3.05;;;16.50;99.90;;;;;;5004522;28;20538;-82
2023/09/20 06:01:40;;;;;;;7.63;2.13;;;16.50;99.90;;;;;;4988511;28;20084;-88
2023/09/20 06:04:07;;;;;;;3.97;2.42;;;16.40;99.90;;;;;;4986971;28;20140;-78
2023/09/20 06:06:37;;;;;;;6.68;2.60;;;16.50;99.90;;;;;;4984370;28;20041;-79
2023/09/20 06:09:03;;;;;;;11.50;2.38;;;16.40;99.90;;;;;;4996451;28;20451;-75
2023/09/20 06:11:29;;;;;;;6.60;3.42;;;16.50;99.90;;;;;;4986661;28;20092;-79
2023/09/20 06:13:55;;;;;;;3.38;2.03;;;16.50;99.90;;;;;;5021485;28;20464;-79
2023/09/20 06:16:22;;;;;;;4.82;2.42;;;16.50;99.90;;;;;;5021125;28;20111;-77
2023/09/20 06:18:48;;;;;;;6.07;2.47;;;16.50;99.90;;;;;;5003806;28;20079;-74
2023/09/20 06:21:17;;;;;;;7.47;2.70;;;16.50;99.90;;;;;;5018181;28;20038;-80
2023/09/20 06:23:46;;;;;;;4.70;2.33;;;16.50;99.90;;;;;;5004449;28;20533;-78
2023/09/20 06:26:12;;;;;;;5.30;2.25;;;16.50;99.90;;;;;;5004985;28;20402;-81
2023/09/20 06:28:42;;;;;;;3.97;2.15;;;16.60;99.90;;;;;;5021468;28;20265;-80
2023/09/20 06:31:13;;;;;;;5.65;2.92;;;16.60;99.90;;;;;;5021496;28;20113;-78
2023/09/20 06:33:43;;;;;;;4.38;1.77;;;16.50;99.90;;;;;;5022128;28;20484;-77
2023/09/20 06:36:15;;;;;;;11.35;4.25;;;16.50;99.90;;;;;;5004745;28;20045;-85
2023/09/20 06:38:42;;;;;;;3.35;2.38;;;16.60;99.90;;;;;;5004821;28;20128;-82
2023/09/20 06:41:08;;;;;;;8.43;2.35;;;16.60;99.90;;;;;;5021392;28;20044;-78
2023/09/20 06:43:36;;;;;;;5.47;2.42;;;16.60;99.90;;;;;;5004216;28;20041;-80
2023/09/20 06:46:03;;;;;;;5.95;2.28;;;16.60;99.90;;;;;;5004073;28;20041;-80
2023/09/20 06:48:29;;;;;;;13.63;2.08;;;16.60;99.90;;;;;;5003659;28;20057;-78
2023/09/20 06:50:55;;;;;;;3.03;1.55;;;16.60;99.90;;;;;;5022411;28;20121;-83
2023/09/20 06:53:23;;;;;;;3.75;1.85;;;16.60;99.90;;;;;;5004337;28;20128;-76
2023/09/20 06:55:49;;;;;;;4.53;2.00;;;16.60;99.90;;;;;;4987625;28;20033;-78
2023/09/20 06:58:15;;;;;;;7.03;2.10;;;16.60;99.90;;;;;;5002434;28;20532;-87
2023/09/20 07:00:41;;;;;;;5.15;2.03;;;16.60;99.90;;;;;;5004130;28;20060;-83
2023/09/20 07:03:08;;;;;;;7.20;2.20;;;16.60;99.90;;;;;;5004836;28;20046;-83
2023/09/20 07:05:34;;;;;;;4.00;1.90;;;16.60;99.90;;;;;;5004342;28;20554;-79
2023/09/20 07:08:00;;;;;;;4.00;1.70;;;16.60;99.90;;;;;;4970213;28;20046;-84
2023/09/20 07:10:29;;;;;;;7.28;2.35;;;16.60;99.90;;;;;;4993974;28;20309;-81
2023/09/20 07:12:55;;;;;;;4.60;1.95;;;16.60;99.90;;;;;;4988330;28;20053;-80
2023/09/20 07:15:24;;;;;;;6.45;2.10;;;16.70;99.90;;;;;;5002951;28;20485;-85
2023/09/20 07:17:58;;;;;;;3.33;1.80;;;16.70;99.90;;;;;;5003496;28;20095;-81
2023/09/20 07:20:34;;;;;;;6.68;1.80;;;16.70;99.90;;;;;;5003131;28;20044;-80
2023/09/20 07:22:59;;;;;;;3.88;1.90;;;16.70;99.90;;;;;;5021513;28;20049;-83
2023/09/20 07:25:27;;;;;;;5.88;1.88;;;16.70;99.90;;;;;;5022022;28;20113;-81
2023/09/20 07:27:55;;;;;;;4.85;2.10;;;16.70;99.90;;;;;;4987717;28;20049;-84
2023/09/20 07:30:22;;;;;;;7.43;1.42;;;16.70;99.90;;;;;;5002543;28;20516;-81
2023/09/20 07:32:52;;;;;;;3.25;1.48;;;16.70;99.90;;;;;;5004586;28;20061;-82
2023/09/20 07:35:27;;;;;;;3.63;1.95;;;16.70;99.90;;;;;;5003283;28;20087;-83
2023/09/20 07:37:57;;;;;;;6.07;2.25;;;16.70;99.90;;;;;;5002276;28;20057;-86
2023/09/20 07:40:31;;;;;;;6.05;1.80;;;16.70;99.90;;;;;;4997422;28;20076;-83
2023/09/20 07:43:04;;;;;;;4.25;1.67;;;16.70;99.90;;;;;;4988251;28;20207;-83
2023/09/20 07:45:38;;;;;;;3.97;1.70;;;16.70;99.90;;;;;;5006965;28;20053;-82
2023/09/20 07:48:12;;;;;;;4.28;2.47;;;16.80;99.90;;;;;;5007674;28;20544;-83
2023/09/20 07:50:50;;;;;;;6.05;1.90;;;16.80;99.90;;;;;;5006890;28;20248;-79
2023/09/20 07:53:17;;;;;;;5.75;1.73;;;16.80;99.90;;;;;;5007385;28;20049;-82
2023/09/20 07:55:44;;;;;;;5.13;1.80;;;16.80;99.90;;;;;;4990100;28;20279;-82
2023/09/20 07:58:11;;;;;;;3.45;1.90;;;16.80;99.90;;;;;;4989921;28;20049;-82
2023/09/20 08:00:52;;;;;;;5.05;2.45;;;16.80;99.90;;;;;;4990847;28;20476;-83
2023/09/20 08:03:20;;;;;;;5.38;1.88;;;16.90;99.90;;;;;;5007369;28;20096;-82
2023/09/20 08:05:47;;;;;;;5.00;2.55;;;16.90;99.90;;;;;;5006857;28;20053;-81
2023/09/20 08:08:13;;;;;;;4.78;2.50;;;16.90;99.90;;;;;;4986371;28;20429;-81
2023/09/20 08:10:40;;;;;;;5.25;3.33;;;16.90;99.90;;;;;;4987295;28;20121;-77
2023/09/20 08:13:06;;;;;;;3.28;1.85;;;16.90;99.90;;;;;;4986861;28;20471;-82
2023/09/20 08:15:38;;;;;;;3.50;2.40;;;16.90;99.90;;;;;;4986888;28;20088;-81
2023/09/20 08:20:48;;;;;;;4.05;2.33;;;16.90;99.90;;;;;;4986666;28;20053;-83
2023/09/20 09:01:44;;;;;;;5.22;2.65;;;17.20;99.90;;;;;;4986124;28;20504;-82
2023/09/20 09:04:12;;;;;;;4.57;2.35;;;17.30;99.90;;;;;;4986272;28;20046;-80
2023/09/20 09:06:38;;;;;;;5.10;3.30;;;17.30;99.90;;;;;;5010316;28;20052;-82
2023/09/20 09:09:04;;;;;;;3.85;2.97;;;17.30;99.90;;;;;;5023397;28;20041;-81
2023/09/20 09:11:29;;;;;;;2.75;2.30;;;17.30;99.90;;;;;;5023311;28;20057;-83
2023/09/20 09:13:58;;;;;;;3.85;2.95;;;17.30;99.90;;;;;;5004191;28;20304;-81
2023/09/20 09:16:28;;;;;;;8.55;2.63;;;17.30;99.90;;;;;;5023469;28;20059;-79
2023/09/20 09:18:54;;;;;;;4.95;3.28;;;17.30;99.90;;;;;;5005150;28;20084;-84
2023/09/20 09:21:20;;;;;;;3.67;2.05;;;17.30;99.90;;;;;;5022670;28;20594;-81
2023/09/20 09:23:47;;;;;;;3.97;2.45;;;17.30;99.90;;;;;;4989539;28;20037;-84
2023/09/20 09:26:13;;;;;;;4.68;2.90;;;17.30;99.90;;;;;;5004346;28;20049;-83
2023/09/20 09:28:45;;;;;;;8.30;2.78;;;17.40;99.90;;;;;;5004258;28;20045;-80
2023/09/20 09:31:10;;;;;;;3.50;2.87;;;17.40;99.90;;;;;;5005479;28;20041;-79
2023/09/20 09:33:37;;;;;;;3.28;2.25;;;17.50;99.90;;;;;;5005413;28;20300;-83
2023/09/20 09:36:04;;;;;;;5.32;2.67;;;17.50;99.90;;;;;;5005767;28;20045;-81
2023/09/20 09:38:32;;;;;;;6.47;2.60;;;17.50;99.90;;;;;;4989122;28;20094;-83
2023/09/20 09:40:59;;;;;;;2.75;2.00;;;17.60;99.90;;;;;;4989305;28;20046;-80
2023/09/20 09:43:31;;;;;;;5.25;2.65;;;17.60;99.90;;;;;;5004099;28;20116;-84
2023/09/20 09:46:08;;;;;;;4.65;2.25;;;17.70;99.90;;;;;;4987198;28;20507;-82
2023/09/20 09:48:35;;;;;;;3.15;2.33;;;17.70;99.90;;;;;;4982935;28;20046;-84
2023/09/20 09:51:01;;;;;;;5.03;2.65;;;17.70;99.90;;;;;;4980599;28;20041;-78
2023/09/20 09:53:29;;;;;;;4.32;2.63;;;17.70;99.90;;;;;;4989850;28;20041;-80
2023/09/20 09:55:56;;;;;;;4.40;2.53;;;17.70;99.90;;;;;;5003403;28;20137;-85
2023/09/20 09:58:22;;;;;;;4.68;2.33;;;17.70;99.90;;;;;;4987287;28;20091;-81
2023/09/20 10:00:50;;;;;;;4.15;2.47;;;17.60;99.90;;;;;;4989007;28;20037;-83
2023/09/20 10:03:29;;;;;;;4.28;2.58;;;17.60;99.90;;;;;;4987843;28;20037;-85
2023/09/20 10:06:06;;;;;;;4.10;2.60;;;17.60;99.90;;;;;;4987367;28;20040;-80
2023/09/20 10:08:37;;;;;;;5.35;2.33;;;17.60;99.90;;;;;;4996879;28;20072;-82
2023/09/20 10:11:05;;;;;;;5.35;2.80;;;17.60;99.90;;;;;;5001757;28;20092;-80
2023/09/20 10:13:34;;;;;;;2.47;2.15;;;17.60;99.90;;;;;;4983760;28;20393;-80
2023/09/20 10:16:04;;;;;;;3.30;2.45;;;17.60;99.90;;;;;;5000837;28;20432;-79
2023/09/20 10:18:55;;;;;;;2.35;2.15;;;17.50;99.90;;;;;;4983873;28;20066;-79
2023/09/20 10:21:26;;;;;;;3.42;2.80;;;17.50;99.90;;;;;;4984071;28;20092;-81
2023/09/20 10:24:00;;;;;;;3.20;2.47;;;17.50;99.90;;;;;;5001726;28;20056;-81
2023/09/20 10:26:27;;;;;;;3.42;2.05;;;17.50;99.90;;;;;;5002030;28;20087;-79
2023/09/20 10:28:59;;;;;;;4.03;2.70;;;17.50;99.90;;;;;;4998850;28;20042;-82
2023/09/20 10:31:29;;;;;;;4.10;2.47;;;17.40;99.90;;;;;;4999936;28;20559;-81
2023/09/20 10:33:56;;;;;;;2.55;2.35;;;17.50;99.90;;;;;;4965100;28;20062;-79
2023/09/20 10:36:28;;;;;;;5.40;1.98;;;17.50;99.90;;;;;;4999859;28;20077;-80
2023/09/20 10:39:11;;;;;;;;;;;17.40;99.90;;;;;;5002116;28;20049;-81
2023/09/20 10:41:40;;;;;;;3.15;2.28;;;17.40;99.90;;;;;;5001679;28;20052;-80
2023/09/20 10:44:06;;;;;;;5.60;2.22;;;17.50;99.90;;;;;;5001042;28;20403;-81
2023/09/20 10:46:36;;;;;;;4.30;2.60;;;17.40;99.90;;;;;;5000577;28;20046;-82
2023/09/20 10:49:03;;;;;;;3.42;2.53;;;17.50;99.90;;;;;;5002359;28;20052;-79
2023/09/20 10:51:53;;;;;;;5.18;2.58;;;17.50;99.90;;;;;;4999555;28;20112;-82
2023/09/20 10:54:26;;;;;;;5.85;2.78;;;17.40;99.90;;;;;;5001176;28;20050;-81
2023/09/20 10:56:51;;;;;;;8.90;3.30;;;17.40;99.90;;;;;;5000761;28;20045;-80
2023/09/20 10:59:21;;;;;;;5.30;2.90;;;17.40;99.90;;;;;;4998974;28;20566;-81
2023/09/20 11:01:56;;;;;;;5.85;2.67;;;17.50;99.90;;;;;;5002459;28;20049;-79
2023/09/20 11:04:22;;;;;;;7.60;3.42;;;17.40;99.90;;;;;;5000682;28;20128;-81
2023/09/20 11:06:48;;;;;;;4.47;2.60;;;17.40;99.90;;;;;;4992403;28;20050;-82
2023/09/20 11:09:15;;;;;;;4.72;2.80;;;17.40;99.90;;;;;;4971045;28;20641;-81
2023/09/20 11:11:42;;;;;;;4.47;2.58;;;17.40;99.90;;;;;;5000939;28;20061;-82
2023/09/20 11:14:08;;;;;;;3.75;2.78;;;17.40;99.90;;;;;;4999596;28;20041;-81
2023/09/20 11:16:34;;;;;;;3.30;2.53;;;17.50;99.90;;;;;;5000728;28;20257;-81
2023/09/20 11:19:00;;;;;;;4.25;3.08;;;17.50;99.90;;;;;;5003253;28;20042;-81
2023/09/20 11:21:26;;;;;;;3.58;2.70;;;17.50;99.90;;;;;;5004027;28;20038;-81
2023/09/20 11:23:52;;;;;;;3.28;2.78;;;17.50;99.90;;;;;;4989077;28;20099;-82
2023/09/20 11:26:27;;;;;;;2.50;2.08;;;17.50;99.90;;;;;;5004523;28;20050;-80
2023/09/20 11:28:53;;;;;;;3.00;2.58;;;17.50;99.90;;;;;;5004320;28;20072;-80
2023/09/20 11:31:30;;;;;;;4.47;2.80;;;17.60;99.90;;;;;;5004391;28;20508;-81
2023/09/20 11:34:03;;;;;;;3.55;2.80;;;17.60;99.90;;;;;;5004868;28;20742;-80
2023/09/20 11:36:37;;;;;;;4.35;2.83;;;17.60;99.90;;;;;;5005506;28;20072;-81
2023/09/20 11:39:03;;;;;;;4.57;2.80;;;17.60;99.90;;;;;;5005935;28;20057;-81
2023/09/20 11:41:30;;;;;;;7.22;3.30;;;17.70;99.90;;;;;;5003613;28;20050;-78
2023/09/20 11:43:56;;;;;;;4.38;2.97;;;17.70;99.90;;;;;;5003054;28;20054;-80
2023/09/20 11:46:22;;;;;;;4.68;3.00;;;17.70;99.90;;;;;;5004251;28;20045;-82
2023/09/20 11:48:51;;;;;;;3.50;3.00;;;17.70;99.90;;;;;;5005068;28;20129;-82
2023/09/20 11:51:17;;;;;;;7.75;3.00;;;17.80;99.90;;;;;;4987432;28;20049;-80
2023/09/20 11:53:44;;;;;;;6.20;2.50;;;17.70;99.90;;;;;;5004371;28;20042;-82
2023/09/20 11:56:10;;;;;;;5.40;3.20;;;17.70;99.90;;;;;;5003893;28;20088;-80
2023/09/20 11:58:37;;;;;;;3.75;2.83;;;17.70;99.90;;;;;;4987988;28;20404;-82
2023/09/20 12:01:06;;;;;;;7.68;3.78;;;17.80;99.90;;;;;;5003724;28;20556;-82
2023/09/20 12:03:34;;;;;;;4.73;2.80;;;17.80;99.90;;;;;;5001185;28;20516;-81
2023/09/20 12:05:59;;;;;;;3.70;3.00;;;17.70;99.90;;;;;;4977050;28;20084;-79
2023/09/20 12:08:32;;;;;;;4.65;3.00;;;17.70;99.90;;;;;;5003769;28;20335;-80
2023/09/20 12:10:58;;;;;;;5.28;3.25;;;17.70;99.90;;;;;;5004846;28;20061;-80
2023/09/20 12:13:24;;;;;;;5.72;2.88;;;17.80;99.90;;;;;;5004773;28;20060;-80
2023/09/20 12:15:51;;;;;;;6.03;3.17;;;17.70;99.90;;;;;;5016968;28;20061;-80
2023/09/20 12:18:16;;;;;;;5.93;2.53;;;17.70;99.90;;;;;;5005876;28;20052;-83
2023/09/20 12:20:42;;;;;;;3.20;2.70;;;17.70;99.90;;;;;;5003362;28;20322;-83
2023/09/20 12:23:09;;;;;;;3.25;2.42;;;17.70;99.90;;;;;;4991773;28;20492;-82
2023/09/20 12:25:35;;;;;;;4.35;2.38;;;17.70;99.90;;;;;;5007260;28;20049;-84
2023/09/20 12:28:01;;;;;;;8.23;2.25;;;17.70;99.90;;;;;;5007079;28;20148;-84
2023/09/20 12:30:27;;;;;;;4.43;3.33;;;17.70;99.90;;;;;;5023785;28;20508;-83
2023/09/20 12:32:56;;;;;;;3.88;3.05;;;17.70;99.90;;;;;;5003477;28;20124;-85
2023/09/20 12:35:21;;;;;;;4.05;2.63;;;17.70;99.90;;;;;;5007746;28;20115;-88
2023/09/20 12:37:47;;;;;;;6.55;2.67;;;17.80;99.90;;;;;;5005530;28;20681;-80
2023/09/20 12:40:12;;;;;;;6.18;2.13;;;17.70;99.90;;;;;;5005709;28;20080;-80
2023/09/20 12:42:38;;;;;;;3.63;2.47;;;17.70;99.90;;;;;;4989669;28;20041;-81
2023/09/20 12:45:08;;;;;;;4.55;2.97;;;17.70;99.90;;;;;;5007314;28;20068;-80
2023/09/20 12:47:35;;;;;;;3.70;2.00;;;17.70;99.90;;;;;;5005336;28;20116;-82
2023/09/20 12:50:01;;;;;;;6.78;4.07;;;17.80;99.90;;;;;;5005604;28;20111;-81
2023/09/20 12:52:27;;;;;;;5.78;1.83;;;17.80;99.90;;;;;;5004455;28;20554;-81
2023/09/20 12:54:52;;;;;;;5.25;2.88;;;17.80;99.90;;;;;;4988738;28;20516;-84
2023/09/20 12:57:22;;;;;;;3.47;2.83;;;17.70;99.90;;;;;;5004689;28;20092;-82
2023/09/20 12:59:48;;;;;;;3.90;2.03;;;17.80;99.90;;;;;;5005352;28;20124;-80
2023/09/20 13:02:16;;;;;;;5.13;2.33;;;17.80;99.90;;;;;;4988530;28;20053;-82
2023/09/20 13:04:49;;;;;;;7.45;2.45;;;17.80;99.90;;;;;;5006004;28;20042;-82
2023/09/20 13:07:15;;;;;;;5.13;2.47;;;17.80;99.90;;;;;;4993961;28;20081;-79
2023/09/20 13:09:42;;;;;;;4.28;2.35;;;17.90;99.90;;;;;;4969596;28;20264;-83
2023/09/20 13:12:08;;;;;;;7.25;2.70;;;17.90;99.90;;;;;;4986703;28;20053;-81
2023/09/20 13:14:34;;;;;;;5.50;2.67;;;17.90;99.90;;;;;;4995029;28;20090;-82
2023/09/20 13:17:00;;;;;;;7.63;3.47;;;18.00;99.90;;;;;;5005300;28;20131;-81
2023/09/20 13:19:26;;;;;;;4.75;2.97;;;18.00;99.90;;;;;;5005604;28;20491;-86
2023/09/20 13:21:52;;;;;;;5.78;3.00;;;18.00;99.90;;;;;;5001161;28;20054;-81
2023/09/20 13:24:17;;;;;;;6.28;2.78;;;18.10;99.90;;;;;;4987945;28;20128;-83
2023/09/20 13:26:44;;;;;;;3.95;2.83;;;18.10;99.90;;;;;;4990420;28;20053;-82
2023/09/20 13:29:13;;;;;;;5.03;2.67;;;18.10;99.90;;;;;;4988620;28;20045;-86
2023/09/20 13:31:40;;;;;;;6.07;2.72;;;18.20;99.90;;;;;;4989044;28;20124;-87